Flight Track Log - Related Links

Times and Time Zones

All times are in EDT time to prevent confusion due to time zone crossing. See the KAP46 flight status page for this flight to view local times or setup timezone preferences in your user account.

Time Position Orientation Groundspeed Altitude Reporting Facility
EDT Latitude Longitude Course Direction KTS MPH feet Rate Location/Type
Sat 19:24:29 43.5025 -74.1575 341° North 149 171 6,500  Level Boston Center
Sat 19:25:30 43.5439 -74.1758 342° North 149 171 6,500  Level Boston Center
Sat 19:26:30 43.5872 -74.1972 340° North 149 171 6,500  Level Boston Center
Sat 19:27:30 43.6286 -74.2186 339° North 149 171 6,500  Level Boston Center
Sat 19:28:28 43.6700 -74.2369 342° North 154 177 6,500  Level Boston Center
Sat 19:29:00 43.6570 -74.2252 341° North  Level Estimated
Sat 19:29:29 43.7136 -74.2583 340° North 154 177 6,500  Level Boston Center
Sat 19:30:29 43.7589 -74.2797 341° North 154 177 6,500  Level Boston Center
Sat 19:31:30 43.7983 -74.2983 341° North 154 177 6,500  Level Boston Center
Sat 19:32:28 43.8439 -74.3169 344° North 159 183 6,500  Level Boston Center
Sat 19:33:29 43.8894 -74.3386 341° North 165 190 6,500  Level Boston Center
Sat 19:34:30 43.9328 -74.3572 343° North 165 190 6,500  Level Boston Center
Sat 19:35:30 43.9761 -74.3789 340° North 165 190 6,500  Level Boston Center
Sat 19:36:30 44.0194 -74.4006 340° North 165 190 6,500  Level Boston Center
Sat 19:37:28 44.0653 -74.4164 346° North 165 190 6,500  Level Boston Center
Sat 19:38:28 44.1086 -74.4322 345° North 165 190 6,500  Level Boston Center
Sat 19:39:29 44.1519 -74.4511 343° North 165 190 6,500  Level Boston Center
Sat 19:40:29 44.1975 -74.4728 341° North 165 190 6,500  Level Boston Center
Sat 19:41:30 44.2408 -74.4917 343° North 165 190 6,500  Level Boston Center
Sat 19:42:30 44.2844 -74.5136 340° North 165 190 6,500  Level Boston Center
Sat 19:43:28 44.3256 -74.5353 339° North 165 190 6,500  Level Boston Center
Sat 19:44:41 44.3814 -74.5606 342° North 165 190 6,500 -45 Level Boston Center
Sat 19:45:42 44.4269 -74.5797 343° North 165 190 6,400 -229 Descending Boston Center
Sat 19:46:52 44.4725 -74.5986 344° North 165 190 6,000 -415 Descending Boston Center
Sat 19:47:52 44.5281 -74.6242 342° North 171 197 5,500 -446 Descending Boston Center
Sat 19:48:53 44.5778 -74.6433 345° North 171 197 5,100 -443 Descending Boston Center
Sat 19:49:54 44.6275 -74.6656 342° North 176 203 4,600 -492 Descending Boston Center
Sat 19:51:00 44.6690 -74.6898 337° Northwest  Level FlightAware Approximate
Sat 19:58:00 44.9333 -74.8333 341° North  Level FlightAware Approximate
Sat 19:59:00 44.9362 -74.8451 341° North  Level Estimated
Sat 20:00:00 44.9362 -74.8451 341° North  Level Estimated
Sat 20:01:00 44.9362 -74.8451 341° North  Level Estimated
Sat 20:02:00 44.9362 -74.8451 341° North  Level Estimated
Sat 20:03:00 44.9362 -74.8451 341° North  Level Estimated
Sat 20:04:00 44.9362 -74.8451 341° North  Level Estimated
Sat 20:05:00 44.9362 -74.8451 341° North  Level Estimated
Sat 20:06:00 44.9362 -74.8451 341° North  Level Estimated
Sat 20:07:00 44.9362 -74.8451 341° North  Level Estimated
Sat 20:08:00 44.9362 -74.8451 341° North  Level Estimated
Sat 20:09:00 44.9362 -74.8451 341° North  Level Estimated
Sat 20:10:00 44.9362 -74.8451 341° North  Level Estimated
Sat 20:11:00 44.9362 -74.8451 341° North  Level Estimated
Sat 20:12:00 44.9362 -74.8451 341° North  Level Estimated
Sat 20:13:00 44.9362 -74.8451 341° North  Level Estimated
Sat 20:14:00 44.9362 -74.8451 341° North  Level Estimated
Sat 20:15:00 44.9362 -74.8451 341° North  Level Estimated
Sat 20:16:00 44.9362 -74.8451 341° North  Level Estimated

Login

Don't have an account? Register now (free) for customized features, flight alerts, and more!